createdAt,value
2022-12-08T00:00:13.520Z,2.35
2022-12-08T00:05:14.873Z,2.34
2022-12-08T00:10:47.026Z,2.29
2022-12-08T00:15:18.726Z,2.28
2022-12-08T00:20:20.734Z,2.29
2022-12-08T00:25:22.844Z,2.33
2022-12-08T00:30:24.734Z,2.31
2022-12-08T00:35:26.243Z,2.28
2022-12-08T00:40:27.369Z,2.3
2022-12-08T00:45:28.755Z,2.33
2022-12-08T00:50:30.406Z,2.34
2022-12-08T00:55:32.356Z,2.33
2022-12-08T01:00:34.403Z,2.32
2022-12-08T01:05:36.318Z,2.32
2022-12-08T01:10:38.189Z,2.31
2022-12-08T01:15:39.880Z,2.3
2022-12-08T01:20:41.089Z,2.29
2022-12-08T01:25:42.412Z,2.25
2022-12-08T02:00:54.394Z,2.16
2022-12-08T02:15:59.537Z,2.17
2022-12-08T02:21:00.681Z,2.15
2022-12-08T02:31:04.361Z,2.11
2022-12-08T02:36:06.435Z,2.14
2022-12-08T02:41:08.084Z,2.13
2022-12-08T02:51:11.305Z,2.05
2022-12-08T02:56:12.399Z,2.03
2022-12-08T03:01:14.678Z,1.96
2022-12-08T03:06:16.303Z,1.89
2022-12-08T03:11:17.603Z,1.83
2022-12-08T03:16:18.904Z,1.79
2022-12-08T03:21:20.720Z,1.75
2022-12-08T03:26:22.487Z,1.68
2022-12-08T03:31:24.023Z,1.63
2022-12-08T03:36:26.065Z,1.61
2022-12-08T03:41:27.768Z,1.61
2022-12-08T03:51:31.150Z,1.58
2022-12-08T03:56:32.688Z,1.56
2022-12-08T04:01:34.630Z,1.58
2022-12-08T04:06:35.744Z,1.65
2022-12-08T04:11:37.021Z,1.6
2022-12-08T04:16:38.788Z,1.58
2022-12-08T04:21:40.965Z,1.57
2022-12-08T04:26:42.534Z,1.57
2022-12-08T04:31:44.457Z,1.58
2022-12-08T04:36:45.779Z,1.59
2022-12-08T04:41:47.849Z,1.59
2022-12-08T04:46:49.100Z,1.64
2022-12-08T04:51:51.251Z,1.69
2022-12-08T04:56:52.673Z,1.67
2022-12-08T05:01:55.005Z,1.67
2022-12-08T05:06:56.032Z,1.69
2022-12-08T05:11:57.308Z,1.73
2022-12-08T05:17:00.306Z,1.79
2022-12-08T05:22:01.587Z,1.78
2022-12-08T05:27:03.372Z,1.7
2022-12-08T05:32:04.699Z,1.68
2022-12-08T05:37:06.043Z,1.69
2022-12-08T05:42:07.235Z,1.66
2022-12-08T05:47:09.402Z,1.63
2022-12-08T05:52:10.734Z,1.61
2022-12-08T05:57:12.201Z,1.63
2022-12-08T06:02:14.352Z,1.67
2022-12-08T06:07:16.222Z,1.61
2022-12-08T06:12:17.701Z,1.59
2022-12-08T06:17:19.093Z,1.57
2022-12-08T06:22:20.488Z,1.55
2022-12-08T06:27:21.611Z,1.5
2022-12-08T06:32:27.363Z,1.44
2022-12-08T06:37:25.200Z,1.45
2022-12-08T06:42:27.172Z,1.41
2022-12-08T06:47:29.061Z,1.33
2022-12-08T06:52:31.194Z,1.31
2022-12-08T06:57:32.803Z,1.27
2022-12-08T07:02:34.598Z,1.27
2022-12-08T07:07:36.349Z,1.3
2022-12-08T07:12:37.619Z,1.34
2022-12-08T07:17:39.634Z,1.38
2022-12-08T07:22:41.461Z,1.45
2022-12-08T07:27:42.805Z,1.53
2022-12-08T07:32:44.320Z,1.61
2022-12-08T07:37:45.587Z,1.69
2022-12-08T07:42:47.489Z,1.73
2022-12-08T07:47:48.820Z,1.79
2022-12-08T07:52:50.247Z,1.88
2022-12-08T07:57:51.601Z,1.95
2022-12-08T08:02:53.088Z,2.07
2022-12-08T08:07:54.552Z,2.27
2022-12-08T08:12:56.624Z,2.52
2022-12-08T08:17:58.305Z,2.76
2022-12-08T08:23:00.335Z,2.92
2022-12-08T08:28:02.422Z,3.07
2022-12-08T08:33:04.089Z,3.21
2022-12-08T08:38:05.255Z,3.35
2022-12-08T08:43:06.524Z,3.46
2022-12-08T08:48:08.243Z,3.52
2022-12-08T08:53:09.580Z,3.61
2022-12-08T08:58:11.383Z,3.72
2022-12-08T09:03:13.877Z,3.72
2022-12-08T09:08:15.187Z,3.76
2022-12-08T09:13:17.004Z,3.77
2022-12-08T09:18:18.792Z,3.79
2022-12-08T09:23:20.606Z,3.76
2022-12-08T09:28:22.150Z,3.65
2022-12-08T09:33:23.669Z,3.65
2022-12-08T09:38:25.688Z,3.68
2022-12-08T09:43:27.394Z,3.71
2022-12-08T09:48:29.020Z,3.7
2022-12-08T09:53:35.199Z,3.76
2022-12-08T09:58:32.188Z,3.85
2022-12-08T10:03:33.628Z,3.87
2022-12-08T10:08:35.249Z,3.92
2022-12-08T10:13:37.153Z,4.04
2022-12-08T10:18:39.120Z,4.12
2022-12-08T10:23:41.296Z,4.23
2022-12-08T10:28:45.000Z,4.25
2022-12-08T10:33:44.344Z,4.25
2022-12-08T10:38:46.134Z,4.29
2022-12-08T10:43:48.185Z,4.44
2022-12-08T10:48:50.005Z,4.56
2022-12-08T10:53:51.278Z,4.57
2022-12-08T10:58:53.076Z,4.66
2022-12-08T11:03:54.786Z,4.6
2022-12-08T11:08:56.990Z,4.61
2022-12-08T11:13:58.692Z,4.59
2022-12-08T11:19:00.848Z,4.63
2022-12-08T11:24:02.626Z,4.75
2022-12-08T11:29:04.404Z,4.83
2022-12-08T11:34:12.199Z,4.92
2022-12-08T11:39:13.728Z,4.94
2022-12-08T11:44:14.931Z,5.07
2022-12-08T11:49:16.144Z,5.12
2022-12-08T11:54:17.807Z,5.02
2022-12-08T11:59:19.550Z,4.94
2022-12-08T12:04:21.167Z,5
2022-12-08T12:09:22.866Z,5.07
2022-12-08T12:14:24.590Z,5.13
2022-12-08T12:19:26.366Z,5.11
2022-12-08T12:24:32.884Z,5.16
2022-12-08T12:29:29.853Z,5.25
2022-12-08T12:34:31.439Z,5.27
2022-12-08T12:39:33.108Z,5.25
2022-12-08T12:44:34.896Z,5.18
2022-12-08T12:49:36.699Z,5.13
2022-12-08T12:54:38.150Z,5.12
2022-12-08T12:59:40.224Z,5.09
2022-12-08T13:04:42.332Z,5.08
2022-12-08T13:09:43.738Z,5.08
2022-12-08T13:14:45.049Z,5.03
2022-12-08T13:19:51.649Z,4.9
2022-12-08T13:24:48.070Z,4.84
2022-12-08T13:29:49.855Z,4.8
2022-12-08T13:34:52.063Z,4.8
2022-12-08T13:39:54.019Z,4.76
2022-12-08T14:00:00.188Z,4.66
2022-12-08T14:05:18.922Z,4.63
2022-12-08T14:10:03.262Z,4.64
2022-12-08T14:15:05.231Z,4.61
2022-12-08T14:20:08.173Z,4.55
2022-12-08T14:25:08.535Z,4.41
2022-12-08T14:30:09.851Z,4.35
2022-12-08T14:35:11.432Z,4.33
2022-12-08T14:40:13.104Z,4.26
2022-12-08T14:45:14.674Z,4.13
2022-12-08T14:50:16.897Z,4.05
2022-12-08T14:55:18.423Z,3.99
2022-12-08T15:00:20.055Z,3.87
2022-12-08T15:05:21.536Z,3.76
2022-12-08T15:10:22.681Z,3.64
2022-12-08T15:15:24.376Z,3.54
2022-12-08T15:20:30.131Z,3.48
2022-12-08T15:25:27.795Z,3.4
2022-12-08T15:30:29.848Z,3.35
2022-12-08T15:35:34.704Z,3.3
2022-12-08T15:40:32.967Z,3.27
2022-12-08T15:45:34.180Z,3.17
2022-12-08T15:50:35.885Z,3.08
2022-12-08T15:55:39.075Z,3.07
2022-12-08T16:00:55.522Z,3.03
2022-12-08T16:05:46.780Z,2.97
2022-12-08T16:11:24.060Z,2.92
2022-12-08T16:45:54.612Z,2.72
2022-12-08T16:55:58.001Z,2.63
2022-12-08T17:11:03.556Z,2.47
2022-12-08T17:16:05.678Z,2.46
2022-12-08T17:21:07.264Z,2.45
2022-12-08T17:31:10.426Z,2.33
2022-12-08T17:41:14.749Z,2.14
2022-12-08T17:46:16.167Z,2.07
2022-12-08T17:51:18.168Z,1.99
2022-12-08T17:56:20.375Z,1.87
2022-12-08T18:01:22.453Z,1.75
2022-12-08T18:06:26.937Z,1.65
2022-12-08T18:11:25.858Z,1.54
2022-12-08T18:16:27.698Z,1.43
2022-12-08T18:21:29.764Z,1.35
2022-12-08T18:26:31.290Z,1.27
2022-12-08T18:31:33.376Z,1.21
2022-12-08T18:36:35.450Z,1.15
2022-12-08T18:41:37.623Z,1.11
2022-12-08T18:46:39.760Z,1.04
2022-12-08T18:51:41.967Z,0.95
2022-12-08T18:56:43.739Z,0.89
2022-12-08T19:01:45.108Z,0.84
2022-12-08T19:06:46.754Z,0.74
2022-12-08T19:11:48.718Z,0.63
2022-12-08T19:16:50.515Z,0.57
2022-12-08T19:21:52.717Z,0.5
2022-12-08T19:26:54.375Z,0.42
2022-12-08T19:31:55.918Z,0.33
2022-12-08T19:36:57.498Z,0.26
2022-12-08T19:41:59.479Z,0.22
2022-12-08T19:47:02.489Z,0.19
2022-12-08T19:52:03.021Z,0.15
2022-12-08T19:57:04.727Z,0.15
2022-12-08T20:02:06.712Z,0.11
2022-12-08T20:07:07.991Z,0.08
2022-12-08T20:12:09.320Z,0.04
2022-12-08T20:17:11.364Z,-0.05
2022-12-08T20:22:13.525Z,-0.08
2022-12-08T20:27:15.324Z,-0.1
2022-12-08T20:32:17.509Z,-0.13
2022-12-08T20:37:18.728Z,-0.17
2022-12-08T20:42:20.392Z,-0.21
2022-12-08T20:47:21.783Z,-0.25
2022-12-08T20:52:23.370Z,-0.28
2022-12-08T20:57:25.259Z,-0.32
2022-12-08T21:02:26.957Z,-0.38
2022-12-08T21:07:28.236Z,-0.45
2022-12-08T21:12:29.560Z,-0.49
2022-12-08T21:17:30.972Z,-0.51
2022-12-08T21:22:32.197Z,-0.55
2022-12-08T21:27:34.396Z,-0.58
2022-12-08T21:32:36.224Z,-0.64
2022-12-08T21:37:37.423Z,-0.66
2022-12-08T21:42:39.654Z,-0.69
2022-12-08T21:47:40.779Z,-0.74
2022-12-08T21:52:42.107Z,-0.77
2022-12-08T21:57:43.862Z,-0.81
2022-12-08T22:02:45.651Z,-0.83
2022-12-08T22:07:47.348Z,-0.83
2022-12-08T22:12:49.112Z,-0.85
2022-12-08T22:17:50.851Z,-0.9
2022-12-08T22:22:52.346Z,-0.88
2022-12-08T22:27:54.350Z,-0.9
2022-12-08T22:32:56.273Z,-0.92
2022-12-08T22:37:58.409Z,-0.91
2022-12-08T22:43:00.188Z,-0.92
2022-12-08T22:48:02.124Z,-0.94
2022-12-08T22:53:03.780Z,-0.95
2022-12-08T22:58:05.776Z,-0.99
2022-12-08T23:03:06.957Z,-1
2022-12-08T23:08:08.710Z,-1
2022-12-08T23:13:10.653Z,-1
2022-12-08T23:18:11.677Z,-1
2022-12-08T23:23:13.306Z,-0.99
2022-12-08T23:28:15.233Z,-1.01
2022-12-08T23:33:16.870Z,-1
2022-12-08T23:38:18.344Z,-0.99
2022-12-08T23:43:19.641Z,-0.96
2022-12-08T23:48:21.059Z,-0.93
2022-12-08T23:53:22.833Z,-0.9
2022-12-08T23:58:24.244Z,-0.86
